Vasil Petleshkov — LZLF — position and weather

sailwx.info

Track history (hours):
 
Tides and Currents Weather Stations Pressure Air Temp Water Temp Dewpoint Dewpoint Depression Visibility Wind Speed Wind Dir Waves Ship Positions

Vasil Petleshkov

Last reported at 2017-Dec-12 09:52 UTC. Time now 2017-Dec-15 12:20 UTC.
Position N 44°15' E 028°16'.

Length 199 m; draft 2.1 m.

Type: Ship. MMSI: 207261206.

Date/timePositionNaut miles runAvg speedWind from/ knotsBaromVisibWave heightAir tempDewpointWater temp
2017-Dec-12 09:52N 44°15' E 028°16'2 5.8
2017-Dec-12 09:29N 44°15' E 028°19'3 5.3
2017-Dec-12 08:58N 44°14' E 028°22'3 5.7
2017-Dec-12 08:27N 44°11' E 028°24'7 5.1
2017-Dec-12 07:01N 44°06' E 028°31'1 5.8
2017-Dec-12 06:48N 44°06' E 028°33'2 5.7
2017-Dec-12 06:31N 44°06' E 028°35'1 2.5
2017-Dec-12 05:57N 44°06' E 028°37'1 1.3
2017-Dec-12 05:30N 44°06' E 028°38'1 2.7
2017-Dec-12 04:58N 44°07' E 028°39'0 0.0
2017-Dec-12 04:28N 44°07' E 028°39'0 0.4
2017-Dec-12 03:59N 44°07' E 028°39'0 0.0
2017-Dec-12 03:20N 44°07' E 028°39'0 0.0
2017-Dec-12 02:56N 44°07' E 028°39'0 0.0
2017-Dec-12 02:29N 44°07' E 028°39'0 0.0
2017-Dec-12 01:59N 44°07' E 028°39'0 0.0
2017-Dec-12 01:29N 44°07' E 028°39'0 0.0
2017-Dec-12 00:56N 44°07' E 028°39'0 0.0
2017-Dec-12 00:29N 44°07' E 028°39'0 0.0
2017-Dec-11 23:59N 44°07' E 028°39'0 0.0
2017-Dec-11 23:29N 44°07' E 028°39'0 0.0
2017-Dec-11 22:59N 44°07' E 028°39'0 0.0
2017-Dec-11 22:29N 44°07' E 028°39'0 0.0
2017-Dec-11 21:59N 44°07' E 028°39'0 0.0
2017-Dec-11 21:29N 44°07' E 028°39'0 0.0
2017-Dec-11 20:59N 44°07' E 028°39'0 0.0
2017-Dec-11 20:29N 44°07' E 028°39'0 0.0
2017-Dec-11 19:59N 44°07' E 028°39'0 0.0
2017-Dec-11 19:29N 44°07' E 028°39'0 0.0
2017-Dec-11 18:59N 44°07' E 028°39'0 0.0
2017-Dec-11 18:29N 44°07' E 028°39'0 0.0
2017-Dec-11 17:59N 44°07' E 028°39'0 0.0
2017-Dec-11 17:26N 44°07' E 028°39'0 0.0
2017-Dec-11 16:59N 44°07' E 028°39'0 0.0
2017-Dec-11 16:26N 44°07' E 028°39'0 0.0
2017-Dec-11 15:59N 44°07' E 028°39'0 0.0
2017-Dec-11 15:29N 44°07' E 028°39'0 0.0
2017-Dec-11 14:59N 44°07' E 028°39'0 0.2
2017-Dec-11 14:26N 44°07' E 028°39'2 4.4
2017-Dec-11 14:00N 44°09' E 028°40'1 2.2
2017-Dec-11 13:28N 44°09' E 028°39'0 0.1
2017-Dec-11 12:58N 44°09' E 028°39'0 0.0
2017-Dec-11 12:28N 44°09' E 028°39'0 0.0
2017-Dec-11 11:58N 44°09' E 028°39'0 0.0
2017-Dec-11 11:28N 44°09' E 028°39'0 0.0
2017-Dec-11 10:58N 44°09' E 028°39'0 0.0
2017-Dec-11 10:28N 44°09' E 028°39'0 0.0
2017-Dec-11 09:58N 44°09' E 028°39'0 0.0
2017-Dec-11 09:25N 44°09' E 028°39'0 0.0
2017-Dec-11 08:58N 44°09' E 028°39'0 0.0
2017-Dec-11 08:28N 44°09' E 028°39'0 0.0
2017-Dec-11 07:58N 44°09' E 028°39'0 0.0
2017-Dec-11 07:28N 44°09' E 028°39'0 0.0
2017-Dec-11 06:55N 44°09' E 028°39'0 0.0
2017-Dec-11 06:28N 44°09' E 028°39'0 0.0
2017-Dec-11 05:58N 44°09' E 028°39'0 0.0
2017-Dec-11 05:28N 44°09' E 028°39'0 0.0
2017-Dec-11 04:58N 44°09' E 028°39'0 0.0
2017-Dec-11 04:25N 44°09' E 028°39'0 0.0
2017-Dec-11 03:58N 44°09' E 028°39'0 0.0
2017-Dec-11 03:28N 44°09' E 028°39'0 0.0
2017-Dec-11 02:58N 44°09' E 028°39'0 0.0
2017-Dec-11 02:28N 44°09' E 028°39'0 0.0
2017-Dec-11 01:58N 44°09' E 028°39'0 0.0
2017-Dec-11 01:25N 44°09' E 028°39'0 0.0
2017-Dec-11 00:58N 44°09' E 028°39'0 0.0
2017-Dec-11 00:28N 44°09' E 028°39'0 0.0
2017-Dec-10 23:58N 44°09' E 028°39'0 0.1
2017-Dec-10 23:28N 44°09' E 028°39'0 0.0
2017-Dec-10 22:58N 44°09' E 028°39'0 0.0
2017-Dec-10 22:28N 44°09' E 028°39'0 0.0
2017-Dec-10 21:58N 44°09' E 028°39'0 0.0
2017-Dec-10 21:28N 44°09' E 028°39'0 0.0
2017-Dec-10 20:58N 44°09' E 028°39'0 0.0
2017-Dec-10 20:28N 44°09' E 028°39'0 0.1
2017-Dec-10 19:58N 44°09' E 028°39'0 0.0
2017-Dec-10 19:28N 44°09' E 028°39'0 0.0
2017-Dec-10 18:58N 44°09' E 028°39'0 0.0
2017-Dec-10 18:28N 44°09' E 028°39'0 0.0
2017-Dec-10 17:58N 44°09' E 028°39'0 0.0
2017-Dec-10 17:28N 44°09' E 028°39'0 0.0
2017-Dec-10 16:58N 44°09' E 028°39'0 0.0
2017-Dec-10 16:28N 44°09' E 028°39'0 0.0
2017-Dec-10 15:58N 44°09' E 028°39'0 0.0
2017-Dec-10 15:28N 44°09' E 028°39'0 0.0
2017-Dec-10 14:58N 44°09' E 028°39'0 0.0
2017-Dec-10 14:28N 44°09' E 028°39'0 0.0
2017-Dec-10 13:58N 44°09' E 028°39'0 0.0
2017-Dec-10 13:28N 44°09' E 028°39'0 0.0
2017-Dec-10 12:58N 44°09' E 028°39'0 0.0
2017-Dec-10 12:28N 44°09' E 028°39'0 0.0
2017-Dec-10 11:58N 44°09' E 028°39'0 0.0
2017-Dec-10 11:28N 44°09' E 028°39'0 0.0
2017-Dec-10 10:58N 44°09' E 028°39'0 0.0
2017-Dec-10 10:25N 44°09' E 028°39'0 0.0
2017-Dec-10 09:58N 44°09' E 028°39'0 0.0
2017-Dec-10 09:28N 44°09' E 028°39'1 1.4
2017-Dec-10 09:00N 44°09' E 028°39'2 4.2
2017-Dec-10 08:30N 44°07' E 028°39'0 0.0
2017-Dec-10 08:00N 44°07' E 028°39'0 0.0
2017-Dec-10 07:30N 44°07' E 028°39'0 0.0
2017-Dec-10 07:00N 44°07' E 028°39'0 0.0
2017-Dec-10 06:30N 44°07' E 028°39'0 0.0
2017-Dec-10 05:57N 44°07' E 028°39'0 0.0
2017-Dec-10 05:30N 44°07' E 028°39'0 0.0
2017-Dec-10 05:00N 44°07' E 028°39'0 0.0
2017-Dec-10 04:30N 44°07' E 028°39'0 0.0
2017-Dec-10 04:00N 44°07' E 028°39'0 0.0
2017-Dec-10 03:30N 44°07' E 028°39'0 0.0
2017-Dec-10 03:00N 44°07' E 028°39'0 0.0
2017-Dec-10 02:21N 44°07' E 028°39'0 0.0
2017-Dec-10 02:00N 44°07' E 028°39'0 0.0
2017-Dec-10 01:30N 44°07' E 028°39'0 0.0
2017-Dec-10 01:00N 44°07' E 028°39'0 0.0
2017-Dec-10 00:30N 44°07' E 028°39'0 0.0
2017-Dec-10 00:00N 44°07' E 028°39'0 0.0
2017-Dec-09 23:30N 44°07' E 028°39'0 0.0
2017-Dec-09 23:00N 44°07' E 028°39'0 0.0
2017-Dec-09 22:30N 44°07' E 028°39'0 0.0
2017-Dec-09 22:00N 44°07' E 028°39'0 0.0
2017-Dec-09 21:27N 44°07' E 028°39'0 0.0
2017-Dec-09 21:00N 44°07' E 028°39'0 0.0
2017-Dec-09 20:30N 44°07' E 028°39'0 0.0
2017-Dec-09 20:00N 44°07' E 028°39'0 0.0
2017-Dec-09 19:30N 44°07' E 028°39'0 0.0
2017-Dec-09 19:00N 44°07' E 028°39'0 0.0
2017-Dec-09 18:30N 44°07' E 028°39'0 0.0
2017-Dec-09 18:00N 44°07' E 028°39'0 0.0
2017-Dec-09 17:27N 44°07' E 028°39'0 0.0
2017-Dec-09 17:00N 44°07' E 028°39'0 0.0
2017-Dec-09 16:30N 44°07' E 028°39'0 0.0
2017-Dec-09 16:00N 44°07' E 028°39'0 0.0
2017-Dec-09 15:30N 44°07' E 028°39'0 0.0
2017-Dec-09 15:00N 44°07' E 028°39'0 0.0
2017-Dec-09 14:30N 44°07' E 028°39'0 0.0
2017-Dec-09 14:00N 44°07' E 028°39'0 0.0
2017-Dec-09 13:30N 44°07' E 028°39'0 0.0
2017-Dec-09 13:00N 44°07' E 028°39'0 0.0
2017-Dec-09 12:30N 44°07' E 028°39'0 0.0
2017-Dec-09 12:00N 44°07' E 028°39'0 0.0
2017-Dec-09 11:30N 44°07' E 028°39'0 0.0
2017-Dec-09 11:00N 44°07' E 028°39'0 0.0
2017-Dec-09 10:30N 44°07' E 028°39'0 0.0
2017-Dec-09 10:00N 44°07' E 028°39'0 0.0
2017-Dec-09 09:30N 44°07' E 028°39'0 0.0
2017-Dec-09 09:00N 44°07' E 028°39'0 0.0
2017-Dec-09 08:30N 44°07' E 028°39'0 0.0
2017-Dec-09 08:00N 44°07' E 028°39'0 0.0
2017-Dec-09 07:30N 44°07' E 028°39'0 0.0
2017-Dec-09 07:00N 44°07' E 028°39'0 0.0
2017-Dec-09 06:30N 44°07' E 028°39'0 0.0
2017-Dec-09 06:00N 44°07' E 028°39'0 0.0
2017-Dec-09 05:30N 44°07' E 028°39'0 0.0
2017-Dec-09 05:00N 44°07' E 028°39'0 0.0
2017-Dec-09 04:30N 44°07' E 028°39'0 0.0
2017-Dec-09 04:00N 44°07' E 028°39'0 0.0
2017-Dec-09 03:30N 44°07' E 028°39'0 0.0
2017-Dec-09 03:00N 44°07' E 028°39'0 0.0
2017-Dec-09 02:27N 44°07' E 028°39'0 0.0
2017-Dec-09 02:00N 44°07' E 028°39'0 0.0
2017-Dec-09 01:30N 44°07' E 028°39'0 0.0
2017-Dec-09 01:00N 44°07' E 028°39'0 0.0
2017-Dec-09 00:30N 44°07' E 028°39'0 0.0
2017-Dec-09 00:00N 44°07' E 028°39'0 0.0
2017-Dec-08 23:30N 44°07' E 028°39'0 0.0
2017-Dec-08 23:00N 44°07' E 028°39'0 0.0
2017-Dec-08 22:30N 44°07' E 028°39'0 0.0
2017-Dec-08 22:00N 44°07' E 028°39'0 0.0
2017-Dec-08 21:30N 44°07' E 028°39'0 0.0
2017-Dec-08 21:00N 44°07' E 028°39'0 0.0
2017-Dec-08 20:30N 44°07' E 028°39'0 0.0
2017-Dec-08 20:00N 44°07' E 028°39'0 0.0
2017-Dec-08 19:30N 44°07' E 028°39'0 0.0
2017-Dec-08 19:00N 44°07' E 028°39'0 0.0
2017-Dec-08 18:30N 44°07' E 028°39'0 0.0
2017-Dec-08 18:00N 44°07' E 028°39'0 0.0
2017-Dec-08 17:27N 44°07' E 028°39'0 0.0
2017-Dec-08 16:54N 44°07' E 028°39'0 0.0
2017-Dec-08 16:30N 44°07' E 028°39'0 0.0
2017-Dec-08 16:00N 44°07' E 028°39'0 0.0
2017-Dec-08 15:30N 44°07' E 028°39'0 0.0
2017-Dec-08 15:00N 44°07' E 028°39'0 0.0
2017-Dec-08 14:30N 44°07' E 028°39'0 0.0
2017-Dec-08 14:00N 44°07' E 028°39'0 0.0
2017-Dec-08 13:30N 44°07' E 028°39'0 0.0
2017-Dec-08 13:00N 44°07' E 028°39'0 0.0
2017-Dec-08 12:30N 44°07' E 028°39'0 0.0
2017-Dec-08 12:00N 44°07' E 028°39'0 0.0
2017-Dec-08 11:30N 44°07' E 028°39'0 0.0
2017-Dec-08 11:00N 44°07' E 028°39'0 0.0
2017-Dec-08 10:30N 44°07' E 028°39'0 0.0
2017-Dec-08 10:00N 44°07' E 028°39'0 0.0
2017-Dec-08 09:30N 44°07' E 028°39'0 0.0
2017-Dec-08 08:57N 44°07' E 028°39'0 0.0
2017-Dec-08 08:27N 44°07' E 028°39'0 0.0
2017-Dec-08 08:00N 44°07' E 028°39'0 0.0
2017-Dec-08 07:30N 44°07' E 028°39'0 0.0
2017-Dec-08 07:00N 44°07' E 028°39'0 0.0
2017-Dec-08 06:27N 44°07' E 028°39'0 0.0
2017-Dec-08 06:00N 44°07' E 028°39'0 0.0
2017-Dec-08 05:30N 44°07' E 028°39'0 0.0
2017-Dec-08 05:00N 44°07' E 028°39'0 0.0
2017-Dec-08 04:30N 44°07' E 028°39'0 0.0
2017-Dec-08 04:00N 44°07' E 028°39'0 0.0
2017-Dec-08 03:30N 44°07' E 028°39'0 0.0
2017-Dec-08 03:00N 44°07' E 028°39'0 0.0
2017-Dec-08 02:30N 44°07' E 028°39'0 0.0
2017-Dec-08 01:57N 44°07' E 028°39'0 0.0
2017-Dec-08 01:27N 44°07' E 028°39'0 0.0
2017-Dec-08 01:00N 44°07' E 028°39'0 0.0
2017-Dec-08 00:30N 44°07' E 028°39'0 0.0
2017-Dec-07 23:57N 44°07' E 028°39'0 0.0
2017-Dec-07 23:30N 44°07' E 028°39'0 0.0
2017-Dec-07 23:00N 44°07' E 028°39'0 0.0
2017-Dec-07 22:30N 44°07' E 028°39'0 0.0
2017-Dec-07 22:00N 44°07' E 028°39'0 0.0
2017-Dec-07 21:27N 44°07' E 028°39'0 0.0
2017-Dec-07 21:00N 44°07' E 028°39'0 0.0
2017-Dec-07 20:30N 44°07' E 028°39'0 0.0
2017-Dec-07 20:00N 44°07' E 028°39'0 0.0
2017-Dec-07 19:30N 44°07' E 028°39'0 0.0
2017-Dec-07 19:00N 44°07' E 028°39'0 0.0
2017-Dec-07 18:27N 44°07' E 028°39'0 0.0
2017-Dec-07 18:00N 44°07' E 028°39'0 0.0
2017-Dec-07 17:30N 44°07' E 028°39'0 0.0
2017-Dec-07 17:00N 44°07' E 028°39'0 0.0
2017-Dec-07 16:30N 44°07' E 028°39'0 0.0
2017-Dec-07 16:00N 44°07' E 028°39'0 0.0
2017-Dec-07 15:30N 44°07' E 028°39'0 0.0
2017-Dec-07 15:00N 44°07' E 028°39'0 0.0
2017-Dec-07 14:30N 44°07' E 028°39'0 0.0
2017-Dec-07 14:00N 44°07' E 028°39'0 0.0
2017-Dec-07 13:27N 44°07' E 028°39'0 0.0
2017-Dec-07 13:00N 44°07' E 028°39'0 0.0
2017-Dec-07 12:27N 44°07' E 028°39'0 0.0
2017-Dec-07 12:00N 44°07' E 028°39'0 0.0
2017-Dec-07 11:30N 44°07' E 028°39'0 0.0
2017-Dec-07 11:00N 44°07' E 028°39'0 0.0
2017-Dec-07 10:27N 44°07' E 028°39'0 0.0
2017-Dec-07 10:00N 44°07' E 028°39'0 0.0
2017-Dec-07 09:30N 44°07' E 028°39'0 0.0
2017-Dec-07 09:00N 44°07' E 028°39'0 0.0
2017-Dec-07 08:24N 44°07' E 028°39'0 0.0
2017-Dec-07 08:00N 44°07' E 028°39'0 0.0
2017-Dec-07 07:30N 44°07' E 028°39'0 0.0
2017-Dec-07 07:00N 44°07' E 028°39'0 0.0
2017-Dec-07 06:30N 44°07' E 028°39'0 0.0
2017-Dec-07 06:00N 44°07' E 028°39'0 0.0
2017-Dec-07 05:30N 44°07' E 028°39'0 0.0
2017-Dec-07 04:57N 44°07' E 028°39'0 0.0
2017-Dec-07 04:30N 44°07' E 028°39'0 0.0
2017-Dec-07 04:00N 44°07' E 028°39'0 0.0
2017-Dec-07 03:30N 44°07' E 028°39'0 0.0
2017-Dec-07 03:00N 44°07' E 028°39'0 0.0
2017-Dec-07 02:30N 44°07' E 028°39'0 0.0
2017-Dec-07 01:57N 44°07' E 028°39'0 0.0
2017-Dec-07 01:30N 44°07' E 028°39'0 0.0
2017-Dec-07 01:00N 44°07' E 028°39'0 0.0
2017-Dec-07 00:30N 44°07' E 028°39'0 0.0
2017-Dec-07 00:00N 44°07' E 028°39'0 0.0
2017-Dec-06 23:30N 44°07' E 028°39'0 0.0
2017-Dec-06 23:00N 44°07' E 028°39'0 0.0
2017-Dec-06 22:30N 44°07' E 028°39'0 0.0
2017-Dec-06 22:00N 44°07' E 028°39'0 0.0
2017-Dec-06 21:30N 44°07' E 028°39'0 0.0
2017-Dec-06 21:00N 44°07' E 028°39'  
2017-Dec-04 10:24N 44°07' E 028°39'0 0.0
2017-Dec-04 10:00N 44°07' E 028°39'0 0.0
2017-Dec-04 09:30N 44°07' E 028°39'0 0.0
2017-Dec-04 09:00N 44°07' E 028°39'0 0.0
2017-Dec-04 08:30N 44°07' E 028°39'0 0.0
2017-Dec-04 08:00N 44°07' E 028°39'0 0.0
2017-Dec-04 07:30N 44°07' E 028°39'0 0.0
2017-Dec-04 07:00N 44°07' E 028°39'0 0.0
2017-Dec-04 06:30N 44°07' E 028°39'0 0.0
2017-Dec-04 06:00N 44°07' E 028°39'0 0.0
2017-Dec-04 05:30N 44°07' E 028°39'0 0.0
2017-Dec-04 05:00N 44°07' E 028°39'0 0.0
2017-Dec-04 04:30N 44°07' E 028°39'0 0.0
2017-Dec-04 04:00N 44°07' E 028°39'0 0.0
2017-Dec-04 03:30N 44°07' E 028°39'0 0.0
2017-Dec-04 03:00N 44°07' E 028°39'0 0.0
2017-Dec-04 02:30N 44°07' E 028°39'0 0.0
2017-Dec-04 02:00N 44°07' E 028°39'0 0.0
2017-Dec-04 01:30N 44°07' E 028°39'0 0.0
2017-Dec-04 00:57N 44°07' E 028°39'0 0.0
2017-Dec-04 00:30N 44°07' E 028°39'0 0.0
2017-Dec-04 00:00N 44°07' E 028°39'0 0.0
2017-Dec-03 23:30N 44°07' E 028°39'0 0.0
2017-Dec-03 23:00N 44°07' E 028°39'0 0.0
2017-Dec-03 22:30N 44°07' E 028°39'0 0.0
2017-Dec-03 21:54N 44°07' E 028°39'0 0.0
2017-Dec-03 21:30N 44°07' E 028°39'0 0.0
2017-Dec-03 21:00N 44°07' E 028°39'0 0.0
2017-Dec-03 20:30N 44°07' E 028°39'0 0.0
2017-Dec-03 20:00N 44°07' E 028°39'0 0.0
2017-Dec-03 19:30N 44°07' E 028°39'0 0.0
2017-Dec-03 19:00N 44°07' E 028°39'0 0.0
2017-Dec-03 18:27N 44°07' E 028°39'0 0.0
2017-Dec-03 18:00N 44°07' E 028°39'0 0.0
2017-Dec-03 17:30N 44°07' E 028°39'0 0.0
2017-Dec-03 17:00N 44°07' E 028°39'0 0.0
2017-Dec-03 16:30N 44°07' E 028°39'0 0.0
2017-Dec-03 16:00N 44°07' E 028°39'0 0.0
2017-Dec-03 15:30N 44°07' E 028°39'0 0.0
2017-Dec-03 15:00N 44°07' E 028°39'0 0.0
2017-Dec-03 14:30N 44°07' E 028°39'0 0.0
2017-Dec-03 14:00N 44°07' E 028°39'0 0.0
2017-Dec-03 13:30N 44°07' E 028°39'0 0.0
2017-Dec-03 13:00N 44°07' E 028°39'0 0.0
2017-Dec-03 12:30N 44°07' E 028°39'0 0.0
2017-Dec-03 12:00N 44°07' E 028°39'0 0.0
2017-Dec-03 11:30N 44°07' E 028°39'0 0.0
2017-Dec-03 11:00N 44°07' E 028°39'0 0.0
2017-Dec-03 10:30N 44°07' E 028°39'0 0.0
2017-Dec-03 10:00N 44°07' E 028°39'0 0.0
2017-Dec-03 09:30N 44°07' E 028°39'0 0.0
2017-Dec-03 09:00N 44°07' E 028°39'0 0.0
2017-Dec-03 08:30N 44°07' E 028°39'0 0.0
2017-Dec-03 08:00N 44°07' E 028°39'0 0.0
2017-Dec-03 07:30N 44°07' E 028°39'0 0.0
2017-Dec-03 07:00N 44°07' E 028°39'0 0.0
2017-Dec-03 06:30N 44°07' E 028°39'0 0.0
2017-Dec-03 06:00N 44°07' E 028°39'0 0.0
2017-Dec-03 05:30N 44°07' E 028°39'0 0.0
2017-Dec-03 05:00N 44°07' E 028°39'0 0.0
2017-Dec-03 04:30N 44°07' E 028°39'0 0.0
2017-Dec-03 04:00N 44°07' E 028°39'0 0.0
2017-Dec-03 03:30N 44°07' E 028°39'0 0.0
2017-Dec-03 03:00N 44°07' E 028°39'0 0.0
2017-Dec-03 02:30N 44°07' E 028°39'0 0.0
2017-Dec-03 02:00N 44°07' E 028°39'0 0.0
2017-Dec-03 01:30N 44°07' E 028°39'0 0.0
2017-Dec-03 01:00N 44°07' E 028°39'0 0.0
2017-Dec-03 00:30N 44°07' E 028°39'0 0.0
2017-Dec-03 00:00N 44°07' E 028°39'0 0.0
2017-Dec-02 23:30N 44°07' E 028°39'0 0.0
2017-Dec-02 23:00N 44°07' E 028°39'0 0.0
2017-Dec-02 22:30N 44°07' E 028°39'0 0.0
2017-Dec-02 22:00N 44°07' E 028°39'0 0.0
2017-Dec-02 21:30N 44°07' E 028°39'0 0.0
2017-Dec-02 21:00N 44°07' E 028°39'0 0.0
2017-Dec-02 20:30N 44°07' E 028°39'0 0.0
2017-Dec-02 20:00N 44°07' E 028°39'0 0.0
2017-Dec-02 19:30N 44°07' E 028°39'0 0.0
2017-Dec-02 19:00N 44°07' E 028°39'0 0.0
2017-Dec-02 18:30N 44°07' E 028°39'0 0.0
2017-Dec-02 18:00N 44°07' E 028°39'0 0.0
2017-Dec-02 17:30N 44°07' E 028°39'0 0.0
2017-Dec-02 17:00N 44°07' E 028°39'0 0.0
2017-Dec-02 16:30N 44°07' E 028°39'0 0.0
2017-Dec-02 16:00N 44°07' E 028°39'0 0.0
2017-Dec-02 15:30N 44°07' E 028°39'0 0.0
2017-Dec-02 15:00N 44°07' E 028°39'0 0.0
2017-Dec-02 14:30N 44°07' E 028°39'0 0.0
2017-Dec-02 14:00N 44°07' E 028°39'0 0.0
2017-Dec-02 13:30N 44°07' E 028°39'0 0.0
2017-Dec-02 13:00N 44°07' E 028°39'0 0.0
2017-Dec-02 12:30N 44°07' E 028°39'0 0.0
2017-Dec-02 12:00N 44°07' E 028°39'0 0.0
2017-Dec-02 11:30N 44°07' E 028°39'0 0.0
2017-Dec-02 11:00N 44°07' E 028°39'0 0.0
2017-Dec-02 10:30N 44°07' E 028°39'0 0.0
2017-Dec-02 10:00N 44°07' E 028°39'  
Track history (hours):
 
Tides and Currents Weather Stations Pressure Air Temp Water Temp Dewpoint Dewpoint Depression Visibility Wind Speed Wind Dir Waves Ship Positions

Vasil Petleshkov

Last reported at 2017-Dec-12 09:52 UTC. Time now 2017-Dec-15 12:20 UTC.
Position N 44°15' E 028°16'.

Length 199 m; draft 2.1 m.

Type: Ship. MMSI: 207261206.

Date/timePositionNaut miles runAvg speedWind from/ knotsBaromVisibWave heightAir tempDewpointWater temp
2017-Dec-12 09:52N 44°15' E 028°16'2 5.8
2017-Dec-12 09:29N 44°15' E 028°19'3 5.3
2017-Dec-12 08:58N 44°14' E 028°22'3 5.7
2017-Dec-12 08:27N 44°11' E 028°24'7 5.1
2017-Dec-12 07:01N 44°06' E 028°31'1 5.8
2017-Dec-12 06:48N 44°06' E 028°33'2 5.7
2017-Dec-12 06:31N 44°06' E 028°35'1 2.5
2017-Dec-12 05:57N 44°06' E 028°37'1 1.3
2017-Dec-12 05:30N 44°06' E 028°38'1 2.7
2017-Dec-12 04:58N 44°07' E 028°39'0 0.0
2017-Dec-12 04:28N 44°07' E 028°39'0 0.4
2017-Dec-12 03:59N 44°07' E 028°39'0 0.0
2017-Dec-12 03:20N 44°07' E 028°39'0 0.0
2017-Dec-12 02:56N 44°07' E 028°39'0 0.0
2017-Dec-12 02:29N 44°07' E 028°39'0 0.0
2017-Dec-12 01:59N 44°07' E 028°39'0 0.0
2017-Dec-12 01:29N 44°07' E 028°39'0 0.0
2017-Dec-12 00:56N 44°07' E 028°39'0 0.0
2017-Dec-12 00:29N 44°07' E 028°39'0 0.0
2017-Dec-11 23:59N 44°07' E 028°39'0 0.0
2017-Dec-11 23:29N 44°07' E 028°39'0 0.0
2017-Dec-11 22:59N 44°07' E 028°39'0 0.0
2017-Dec-11 22:29N 44°07' E 028°39'0 0.0
2017-Dec-11 21:59N 44°07' E 028°39'0 0.0
2017-Dec-11 21:29N 44°07' E 028°39'0 0.0
2017-Dec-11 20:59N 44°07' E 028°39'0 0.0
2017-Dec-11 20:29N 44°07' E 028°39'0 0.0
2017-Dec-11 19:59N 44°07' E 028°39'0 0.0
2017-Dec-11 19:29N 44°07' E 028°39'0 0.0
2017-Dec-11 18:59N 44°07' E 028°39'0 0.0
2017-Dec-11 18:29N 44°07' E 028°39'0 0.0
2017-Dec-11 17:59N 44°07' E 028°39'0 0.0
2017-Dec-11 17:26N 44°07' E 028°39'0 0.0
2017-Dec-11 16:59N 44°07' E 028°39'0 0.0
2017-Dec-11 16:26N 44°07' E 028°39'0 0.0
2017-Dec-11 15:59N 44°07' E 028°39'0 0.0
2017-Dec-11 15:29N 44°07' E 028°39'0 0.0
2017-Dec-11 14:59N 44°07' E 028°39'0 0.2
2017-Dec-11 14:26N 44°07' E 028°39'2 4.4
2017-Dec-11 14:00N 44°09' E 028°40'1 2.2
2017-Dec-11 13:28N 44°09' E 028°39'0 0.1
2017-Dec-11 12:58N 44°09' E 028°39'0 0.0
2017-Dec-11 12:28N 44°09' E 028°39'0 0.0
2017-Dec-11 11:58N 44°09' E 028°39'0 0.0
2017-Dec-11 11:28N 44°09' E 028°39'0 0.0
2017-Dec-11 10:58N 44°09' E 028°39'0 0.0
2017-Dec-11 10:28N 44°09' E 028°39'0 0.0
2017-Dec-11 09:58N 44°09' E 028°39'0 0.0
2017-Dec-11 09:25N 44°09' E 028°39'0 0.0
2017-Dec-11 08:58N 44°09' E 028°39'0 0.0
2017-Dec-11 08:28N 44°09' E 028°39'0 0.0
2017-Dec-11 07:58N 44°09' E 028°39'0 0.0
2017-Dec-11 07:28N 44°09' E 028°39'0 0.0
2017-Dec-11 06:55N 44°09' E 028°39'0 0.0
2017-Dec-11 06:28N 44°09' E 028°39'0 0.0
2017-Dec-11 05:58N 44°09' E 028°39'0 0.0
2017-Dec-11 05:28N 44°09' E 028°39'0 0.0
2017-Dec-11 04:58N 44°09' E 028°39'0 0.0
2017-Dec-11 04:25N 44°09' E 028°39'0 0.0
2017-Dec-11 03:58N 44°09' E 028°39'0 0.0
2017-Dec-11 03:28N 44°09' E 028°39'0 0.0
2017-Dec-11 02:58N 44°09' E 028°39'0 0.0
2017-Dec-11 02:28N 44°09' E 028°39'0 0.0
2017-Dec-11 01:58N 44°09' E 028°39'0 0.0
2017-Dec-11 01:25N 44°09' E 028°39'0 0.0
2017-Dec-11 00:58N 44°09' E 028°39'0 0.0
2017-Dec-11 00:28N 44°09' E 028°39'0 0.0
2017-Dec-10 23:58N 44°09' E 028°39'0 0.1
2017-Dec-10 23:28N 44°09' E 028°39'0 0.0
2017-Dec-10 22:58N 44°09' E 028°39'0 0.0
2017-Dec-10 22:28N 44°09' E 028°39'0 0.0
2017-Dec-10 21:58N 44°09' E 028°39'0 0.0
2017-Dec-10 21:28N 44°09' E 028°39'0 0.0
2017-Dec-10 20:58N 44°09' E 028°39'0 0.0
2017-Dec-10 20:28N 44°09' E 028°39'0 0.1
2017-Dec-10 19:58N 44°09' E 028°39'0 0.0
2017-Dec-10 19:28N 44°09' E 028°39'0 0.0
2017-Dec-10 18:58N 44°09' E 028°39'0 0.0
2017-Dec-10 18:28N 44°09' E 028°39'0 0.0
2017-Dec-10 17:58N 44°09' E 028°39'0 0.0
2017-Dec-10 17:28N 44°09' E 028°39'0 0.0
2017-Dec-10 16:58N 44°09' E 028°39'0 0.0
2017-Dec-10 16:28N 44°09' E 028°39'0 0.0
2017-Dec-10 15:58N 44°09' E 028°39'0 0.0
2017-Dec-10 15:28N 44°09' E 028°39'0 0.0
2017-Dec-10 14:58N 44°09' E 028°39'0 0.0
2017-Dec-10 14:28N 44°09' E 028°39'0 0.0
2017-Dec-10 13:58N 44°09' E 028°39'0 0.0
2017-Dec-10 13:28N 44°09' E 028°39'0 0.0
2017-Dec-10 12:58N 44°09' E 028°39'0 0.0
2017-Dec-10 12:28N 44°09' E 028°39'0 0.0
2017-Dec-10 11:58N 44°09' E 028°39'0 0.0
2017-Dec-10 11:28N 44°09' E 028°39'0 0.0
2017-Dec-10 10:58N 44°09' E 028°39'0 0.0
2017-Dec-10 10:25N 44°09' E 028°39'0 0.0
2017-Dec-10 09:58N 44°09' E 028°39'0 0.0
2017-Dec-10 09:28N 44°09' E 028°39'1 1.4
2017-Dec-10 09:00N 44°09' E 028°39'2 4.2
2017-Dec-10 08:30N 44°07' E 028°39'0 0.0
2017-Dec-10 08:00N 44°07' E 028°39'0 0.0
2017-Dec-10 07:30N 44°07' E 028°39'0 0.0
2017-Dec-10 07:00N 44°07' E 028°39'0 0.0
2017-Dec-10 06:30N 44°07' E 028°39'0 0.0
2017-Dec-10 05:57N 44°07' E 028°39'0 0.0
2017-Dec-10 05:30N 44°07' E 028°39'0 0.0
2017-Dec-10 05:00N 44°07' E 028°39'0 0.0
2017-Dec-10 04:30N 44°07' E 028°39'0 0.0
2017-Dec-10 04:00N 44°07' E 028°39'0 0.0
2017-Dec-10 03:30N 44°07' E 028°39'0 0.0
2017-Dec-10 03:00N 44°07' E 028°39'0 0.0
2017-Dec-10 02:21N 44°07' E 028°39'0 0.0
2017-Dec-10 02:00N 44°07' E 028°39'0 0.0
2017-Dec-10 01:30N 44°07' E 028°39'0 0.0
2017-Dec-10 01:00N 44°07' E 028°39'0 0.0
2017-Dec-10 00:30N 44°07' E 028°39'0 0.0
2017-Dec-10 00:00N 44°07' E 028°39'0 0.0
2017-Dec-09 23:30N 44°07' E 028°39'0 0.0
2017-Dec-09 23:00N 44°07' E 028°39'0 0.0
2017-Dec-09 22:30N 44°07' E 028°39'0 0.0
2017-Dec-09 22:00N 44°07' E 028°39'0 0.0
2017-Dec-09 21:27N 44°07' E 028°39'0 0.0
2017-Dec-09 21:00N 44°07' E 028°39'0 0.0
2017-Dec-09 20:30N 44°07' E 028°39'0 0.0
2017-Dec-09 20:00N 44°07' E 028°39'0 0.0
2017-Dec-09 19:30N 44°07' E 028°39'0 0.0
2017-Dec-09 19:00N 44°07' E 028°39'0 0.0
2017-Dec-09 18:30N 44°07' E 028°39'0 0.0
2017-Dec-09 18:00N 44°07' E 028°39'0 0.0
2017-Dec-09 17:27N 44°07' E 028°39'0 0.0
2017-Dec-09 17:00N 44°07' E 028°39'0 0.0
2017-Dec-09 16:30N 44°07' E 028°39'0 0.0
2017-Dec-09 16:00N 44°07' E 028°39'0 0.0
2017-Dec-09 15:30N 44°07' E 028°39'0 0.0
2017-Dec-09 15:00N 44°07' E 028°39'0 0.0
2017-Dec-09 14:30N 44°07' E 028°39'0 0.0
2017-Dec-09 14:00N 44°07' E 028°39'0 0.0
2017-Dec-09 13:30N 44°07' E 028°39'0 0.0
2017-Dec-09 13:00N 44°07' E 028°39'0 0.0
2017-Dec-09 12:30N 44°07' E 028°39'0 0.0
2017-Dec-09 12:00N 44°07' E 028°39'0 0.0
2017-Dec-09 11:30N 44°07' E 028°39'0 0.0
2017-Dec-09 11:00N 44°07' E 028°39'0 0.0
2017-Dec-09 10:30N 44°07' E 028°39'0 0.0
2017-Dec-09 10:00N 44°07' E 028°39'0 0.0
2017-Dec-09 09:30N 44°07' E 028°39'0 0.0
2017-Dec-09 09:00N 44°07' E 028°39'0 0.0
2017-Dec-09 08:30N 44°07' E 028°39'0 0.0
2017-Dec-09 08:00N 44°07' E 028°39'0 0.0
2017-Dec-09 07:30N 44°07' E 028°39'0 0.0
2017-Dec-09 07:00N 44°07' E 028°39'0 0.0
2017-Dec-09 06:30N 44°07' E 028°39'0 0.0
2017-Dec-09 06:00N 44°07' E 028°39'0 0.0
2017-Dec-09 05:30N 44°07' E 028°39'0 0.0
2017-Dec-09 05:00N 44°07' E 028°39'0 0.0
2017-Dec-09 04:30N 44°07' E 028°39'0 0.0
2017-Dec-09 04:00N 44°07' E 028°39'0 0.0
2017-Dec-09 03:30N 44°07' E 028°39'0 0.0
2017-Dec-09 03:00N 44°07' E 028°39'0 0.0
2017-Dec-09 02:27N 44°07' E 028°39'0 0.0
2017-Dec-09 02:00N 44°07' E 028°39'0 0.0
2017-Dec-09 01:30N 44°07' E 028°39'0 0.0
2017-Dec-09 01:00N 44°07' E 028°39'0 0.0
2017-Dec-09 00:30N 44°07' E 028°39'0 0.0
2017-Dec-09 00:00N 44°07' E 028°39'0 0.0
2017-Dec-08 23:30N 44°07' E 028°39'0 0.0
2017-Dec-08 23:00N 44°07' E 028°39'0 0.0
2017-Dec-08 22:30N 44°07' E 028°39'0 0.0
2017-Dec-08 22:00N 44°07' E 028°39'0 0.0
2017-Dec-08 21:30N 44°07' E 028°39'0 0.0
2017-Dec-08 21:00N 44°07' E 028°39'0 0.0
2017-Dec-08 20:30N 44°07' E 028°39'0 0.0
2017-Dec-08 20:00N 44°07' E 028°39'0 0.0
2017-Dec-08 19:30N 44°07' E 028°39'0 0.0
2017-Dec-08 19:00N 44°07' E 028°39'0 0.0
2017-Dec-08 18:30N 44°07' E 028°39'0 0.0
2017-Dec-08 18:00N 44°07' E 028°39'0 0.0
2017-Dec-08 17:27N 44°07' E 028°39'0 0.0
2017-Dec-08 16:54N 44°07' E 028°39'0 0.0
2017-Dec-08 16:30N 44°07' E 028°39'0 0.0
2017-Dec-08 16:00N 44°07' E 028°39'0 0.0
2017-Dec-08 15:30N 44°07' E 028°39'0 0.0
2017-Dec-08 15:00N 44°07' E 028°39'0 0.0
2017-Dec-08 14:30N 44°07' E 028°39'0 0.0
2017-Dec-08 14:00N 44°07' E 028°39'0 0.0
2017-Dec-08 13:30N 44°07' E 028°39'0 0.0
2017-Dec-08 13:00N 44°07' E 028°39'0 0.0
2017-Dec-08 12:30N 44°07' E 028°39'0 0.0
2017-Dec-08 12:00N 44°07' E 028°39'0 0.0
2017-Dec-08 11:30N 44°07' E 028°39'0 0.0
2017-Dec-08 11:00N 44°07' E 028°39'0 0.0
2017-Dec-08 10:30N 44°07' E 028°39'0 0.0
2017-Dec-08 10:00N 44°07' E 028°39'0 0.0
2017-Dec-08 09:30N 44°07' E 028°39'0 0.0
2017-Dec-08 08:57N 44°07' E 028°39'0 0.0
2017-Dec-08 08:27N 44°07' E 028°39'0 0.0
2017-Dec-08 08:00N 44°07' E 028°39'0 0.0
2017-Dec-08 07:30N 44°07' E 028°39'0 0.0
2017-Dec-08 07:00N 44°07' E 028°39'0 0.0
2017-Dec-08 06:27N 44°07' E 028°39'0 0.0
2017-Dec-08 06:00N 44°07' E 028°39'0 0.0
2017-Dec-08 05:30N 44°07' E 028°39'0 0.0
2017-Dec-08 05:00N 44°07' E 028°39'0 0.0
2017-Dec-08 04:30N 44°07' E 028°39'0 0.0
2017-Dec-08 04:00N 44°07' E 028°39'0 0.0
2017-Dec-08 03:30N 44°07' E 028°39'0 0.0
2017-Dec-08 03:00N 44°07' E 028°39'0 0.0
2017-Dec-08 02:30N 44°07' E 028°39'0 0.0
2017-Dec-08 01:57N 44°07' E 028°39'0 0.0
2017-Dec-08 01:27N 44°07' E 028°39'0 0.0
2017-Dec-08 01:00N 44°07' E 028°39'0 0.0
2017-Dec-08 00:30N 44°07' E 028°39'0 0.0
2017-Dec-07 23:57N 44°07' E 028°39'0 0.0
2017-Dec-07 23:30N 44°07' E 028°39'0 0.0
2017-Dec-07 23:00N 44°07' E 028°39'0 0.0
2017-Dec-07 22:30N 44°07' E 028°39'0 0.0
2017-Dec-07 22:00N 44°07' E 028°39'0 0.0
2017-Dec-07 21:27N 44°07' E 028°39'0 0.0
2017-Dec-07 21:00N 44°07' E 028°39'0 0.0
2017-Dec-07 20:30N 44°07' E 028°39'0 0.0
2017-Dec-07 20:00N 44°07' E 028°39'0 0.0
2017-Dec-07 19:30N 44°07' E 028°39'0 0.0
2017-Dec-07 19:00N 44°07' E 028°39'0 0.0
2017-Dec-07 18:27N 44°07' E 028°39'0 0.0
2017-Dec-07 18:00N 44°07' E 028°39'0 0.0
2017-Dec-07 17:30N 44°07' E 028°39'0 0.0
2017-Dec-07 17:00N 44°07' E 028°39'0 0.0
2017-Dec-07 16:30N 44°07' E 028°39'0 0.0
2017-Dec-07 16:00N 44°07' E 028°39'0 0.0
2017-Dec-07 15:30N 44°07' E 028°39'0 0.0
2017-Dec-07 15:00N 44°07' E 028°39'0 0.0
2017-Dec-07 14:30N 44°07' E 028°39'0 0.0
2017-Dec-07 14:00N 44°07' E 028°39'0 0.0
2017-Dec-07 13:27N 44°07' E 028°39'0 0.0
2017-Dec-07 13:00N 44°07' E 028°39'0 0.0
2017-Dec-07 12:27N 44°07' E 028°39'0 0.0
2017-Dec-07 12:00N 44°07' E 028°39'0 0.0
2017-Dec-07 11:30N 44°07' E 028°39'0 0.0
2017-Dec-07 11:00N 44°07' E 028°39'0 0.0
2017-Dec-07 10:27N 44°07' E 028°39'0 0.0
2017-Dec-07 10:00N 44°07' E 028°39'0 0.0
2017-Dec-07 09:30N 44°07' E 028°39'0 0.0
2017-Dec-07 09:00N 44°07' E 028°39'0 0.0
2017-Dec-07 08:24N 44°07' E 028°39'0 0.0
2017-Dec-07 08:00N 44°07' E 028°39'0 0.0
2017-Dec-07 07:30N 44°07' E 028°39'0 0.0
2017-Dec-07 07:00N 44°07' E 028°39'0 0.0
2017-Dec-07 06:30N 44°07' E 028°39'0 0.0
2017-Dec-07 06:00N 44°07' E 028°39'0 0.0
2017-Dec-07 05:30N 44°07' E 028°39'0 0.0
2017-Dec-07 04:57N 44°07' E 028°39'0 0.0
2017-Dec-07 04:30N 44°07' E 028°39'0 0.0
2017-Dec-07 04:00N 44°07' E 028°39'0 0.0
2017-Dec-07 03:30N 44°07' E 028°39'0 0.0
2017-Dec-07 03:00N 44°07' E 028°39'0 0.0
2017-Dec-07 02:30N 44°07' E 028°39'0 0.0
2017-Dec-07 01:57N 44°07' E 028°39'0 0.0
2017-Dec-07 01:30N 44°07' E 028°39'0 0.0
2017-Dec-07 01:00N 44°07' E 028°39'0 0.0
2017-Dec-07 00:30N 44°07' E 028°39'0 0.0
2017-Dec-07 00:00N 44°07' E 028°39'0 0.0
2017-Dec-06 23:30N 44°07' E 028°39'0 0.0
2017-Dec-06 23:00N 44°07' E 028°39'0 0.0
2017-Dec-06 22:30N 44°07' E 028°39'0 0.0
2017-Dec-06 22:00N 44°07' E 028°39'0 0.0
2017-Dec-06 21:30N 44°07' E 028°39'0 0.0
2017-Dec-06 21:00N 44°07' E 028°39'  
2017-Dec-04 10:24N 44°07' E 028°39'0 0.0
2017-Dec-04 10:00N 44°07' E 028°39'0 0.0
2017-Dec-04 09:30N 44°07' E 028°39'0 0.0
2017-Dec-04 09:00N 44°07' E 028°39'0 0.0
2017-Dec-04 08:30N 44°07' E 028°39'0 0.0
2017-Dec-04 08:00N 44°07' E 028°39'0 0.0
2017-Dec-04 07:30N 44°07' E 028°39'0 0.0
2017-Dec-04 07:00N 44°07' E 028°39'0 0.0
2017-Dec-04 06:30N 44°07' E 028°39'0 0.0
2017-Dec-04 06:00N 44°07' E 028°39'0 0.0
2017-Dec-04 05:30N 44°07' E 028°39'0 0.0
2017-Dec-04 05:00N 44°07' E 028°39'0 0.0
2017-Dec-04 04:30N 44°07' E 028°39'0 0.0
2017-Dec-04 04:00N 44°07' E 028°39'0 0.0
2017-Dec-04 03:30N 44°07' E 028°39'0 0.0
2017-Dec-04 03:00N 44°07' E 028°39'0 0.0
2017-Dec-04 02:30N 44°07' E 028°39'0 0.0
2017-Dec-04 02:00N 44°07' E 028°39'0 0.0
2017-Dec-04 01:30N 44°07' E 028°39'0 0.0
2017-Dec-04 00:57N 44°07' E 028°39'0 0.0
2017-Dec-04 00:30N 44°07' E 028°39'0 0.0
2017-Dec-04 00:00N 44°07' E 028°39'0 0.0
2017-Dec-03 23:30N 44°07' E 028°39'0 0.0
2017-Dec-03 23:00N 44°07' E 028°39'0 0.0
2017-Dec-03 22:30N 44°07' E 028°39'0 0.0
2017-Dec-03 21:54N 44°07' E 028°39'0 0.0
2017-Dec-03 21:30N 44°07' E 028°39'0 0.0
2017-Dec-03 21:00N 44°07' E 028°39'0 0.0
2017-Dec-03 20:30N 44°07' E 028°39'0 0.0
2017-Dec-03 20:00N 44°07' E 028°39'0 0.0
2017-Dec-03 19:30N 44°07' E 028°39'0 0.0
2017-Dec-03 19:00N 44°07' E 028°39'0 0.0
2017-Dec-03 18:27N 44°07' E 028°39'0 0.0
2017-Dec-03 18:00N 44°07' E 028°39'0 0.0
2017-Dec-03 17:30N 44°07' E 028°39'0 0.0
2017-Dec-03 17:00N 44°07' E 028°39'0 0.0
2017-Dec-03 16:30N 44°07' E 028°39'0 0.0
2017-Dec-03 16:00N 44°07' E 028°39'0 0.0
2017-Dec-03 15:30N 44°07' E 028°39'0 0.0
2017-Dec-03 15:00N 44°07' E 028°39'0 0.0
2017-Dec-03 14:30N 44°07' E 028°39'0 0.0
2017-Dec-03 14:00N 44°07' E 028°39'0 0.0
2017-Dec-03 13:30N 44°07' E 028°39'0 0.0
2017-Dec-03 13:00N 44°07' E 028°39'0 0.0
2017-Dec-03 12:30N 44°07' E 028°39'0 0.0
2017-Dec-03 12:00N 44°07' E 028°39'0 0.0
2017-Dec-03 11:30N 44°07' E 028°39'0 0.0
2017-Dec-03 11:00N 44°07' E 028°39'0 0.0
2017-Dec-03 10:30N 44°07' E 028°39'0 0.0
2017-Dec-03 10:00N 44°07' E 028°39'0 0.0
2017-Dec-03 09:30N 44°07' E 028°39'0 0.0
2017-Dec-03 09:00N 44°07' E 028°39'0 0.0
2017-Dec-03 08:30N 44°07' E 028°39'0 0.0
2017-Dec-03 08:00N 44°07' E 028°39'0 0.0
2017-Dec-03 07:30N 44°07' E 028°39'0 0.0
2017-Dec-03 07:00N 44°07' E 028°39'0 0.0
2017-Dec-03 06:30N 44°07' E 028°39'0 0.0
2017-Dec-03 06:00N 44°07' E 028°39'0 0.0
2017-Dec-03 05:30N 44°07' E 028°39'0 0.0
2017-Dec-03 05:00N 44°07' E 028°39'0 0.0
2017-Dec-03 04:30N 44°07' E 028°39'0 0.0
2017-Dec-03 04:00N 44°07' E 028°39'0 0.0
2017-Dec-03 03:30N 44°07' E 028°39'0 0.0
2017-Dec-03 03:00N 44°07' E 028°39'0 0.0
2017-Dec-03 02:30N 44°07' E 028°39'0 0.0
2017-Dec-03 02:00N 44°07' E 028°39'0 0.0
2017-Dec-03 01:30N 44°07' E 028°39'0 0.0
2017-Dec-03 01:00N 44°07' E 028°39'0 0.0
2017-Dec-03 00:30N 44°07' E 028°39'0 0.0
2017-Dec-03 00:00N 44°07' E 028°39'0 0.0
2017-Dec-02 23:30N 44°07' E 028°39'0 0.0
2017-Dec-02 23:00N 44°07' E 028°39'0 0.0
2017-Dec-02 22:30N 44°07' E 028°39'0 0.0
2017-Dec-02 22:00N 44°07' E 028°39'0 0.0
2017-Dec-02 21:30N 44°07' E 028°39'0 0.0
2017-Dec-02 21:00N 44°07' E 028°39'0 0.0
2017-Dec-02 20:30N 44°07' E 028°39'0 0.0
2017-Dec-02 20:00N 44°07' E 028°39'0 0.0
2017-Dec-02 19:30N 44°07' E 028°39'0 0.0
2017-Dec-02 19:00N 44°07' E 028°39'0 0.0
2017-Dec-02 18:30N 44°07' E 028°39'0 0.0
2017-Dec-02 18:00N 44°07' E 028°39'0 0.0
2017-Dec-02 17:30N 44°07' E 028°39'0 0.0
2017-Dec-02 17:00N 44°07' E 028°39'0 0.0
2017-Dec-02 16:30N 44°07' E 028°39'0 0.0
2017-Dec-02 16:00N 44°07' E 028°39'0 0.0
2017-Dec-02 15:30N 44°07' E 028°39'0 0.0
2017-Dec-02 15:00N 44°07' E 028°39'0 0.0
2017-Dec-02 14:30N 44°07' E 028°39'0 0.0
2017-Dec-02 14:00N 44°07' E 028°39'0 0.0
2017-Dec-02 13:30N 44°07' E 028°39'0 0.0
2017-Dec-02 13:00N 44°07' E 028°39'0 0.0
2017-Dec-02 12:30N 44°07' E 028°39'0 0.0
2017-Dec-02 12:00N 44°07' E 028°39'0 0.0
2017-Dec-02 11:30N 44°07' E 028°39'0 0.0
2017-Dec-02 11:00N 44°07' E 028°39'0 0.0
2017-Dec-02 10:30N 44°07' E 028°39'0 0.0
2017-Dec-02 10:00N 44°07' E 028°39'  

Dump ship's entire track history